Time;durP1;ratioP1;P1;durP2;ratioP2;P2;SDS_P1;SDS_P2;PMS_P1;PMS_P2;Temp;Humidity;BMP_temperature;BMP_pressure;BME280_temperature;BME280_humidity;BME280_pressure;Samples;Min_cycle;Max_cycle;Signal;HPM_P1;HPM_P2
2022/10/13 00:01:46;;;;;;;11.70;3.67;;;;;;;7.74;100.00;101228.41;5072201;28;20028;-71
2022/10/13 00:04:11;;;;;;;11.30;3.73;;;;;;;7.68;100.00;101205.84;5071622;28;20035;-71
2022/10/13 00:06:36;;;;;;;12.10;3.87;;;;;;;7.72;100.00;101198.44;5070353;28;20032;-70
2022/10/13 00:09:02;;;;;;;10.77;4.37;;;;;;;7.68;100.00;101199.69;5038209;28;20032;-70
2022/10/13 00:11:29;;;;;;;13.30;4.30;;;;;;;7.66;100.00;101193.69;5070637;28;20043;-71
2022/10/13 00:14:00;;;;;;;15.73;4.65;;;;;;;7.65;100.00;101206.09;5056181;28;20032;-71
2022/10/13 00:16:29;;;;;;;9.95;3.10;;;;;;;7.68;100.00;101220.94;5066278;28;20131;-71
2022/10/13 00:18:54;;;;;;;13.93;4.15;;;;;;;7.70;100.00;101226.97;5073068;28;20465;-71
2022/10/13 00:21:23;;;;;;;12.13;3.90;;;;;;;7.71;100.00;101234.00;5052480;28;20063;-71
2022/10/13 00:23:50;;;;;;;13.65;3.05;;;;;;;7.79;100.00;101229.66;5054698;28;20044;-71
2022/10/13 00:26:20;;;;;;;12.57;3.83;;;;;;;7.84;100.00;101226.63;5051988;28;20070;-71
2022/10/13 00:28:45;;;;;;;11.43;3.33;;;;;;;7.83;100.00;101203.69;5071514;28;20033;-71
2022/10/13 00:31:25;;;;;;;11.83;4.30;;;;;;;7.81;100.00;101195.81;5053564;28;20500;-71
2022/10/13 00:33:51;;;;;;;13.65;3.58;;;;;;;7.90;100.00;101182.72;5072659;28;20055;-71
2022/10/13 00:36:21;;;;;;;11.55;3.10;;;;;;;7.91;100.00;101158.63;5073039;28;20069;-71
2022/10/13 00:38:46;;;;;;;8.20;2.92;;;;;;;7.88;100.00;101140.31;5054887;28;20037;-70
2022/10/13 00:41:12;;;;;;;8.30;2.90;;;;;;;7.87;100.00;101127.16;5073034;28;20028;-70
2022/10/13 00:43:51;;;;;;;14.50;4.43;;;;;;;7.86;100.00;101131.63;5074130;28;20029;-71
2022/10/13 00:46:18;;;;;;;10.93;3.55;;;;;;;7.81;100.00;101128.53;5074130;28;20028;-70
2022/10/13 00:48:47;;;;;;;16.02;3.55;;;;;;;7.79;100.00;101133.16;5057440;28;20508;-70
2022/10/13 00:51:15;;;;;;;18.25;3.85;;;;;;;7.77;100.00;101135.09;5074474;28;20039;-70
2022/10/13 00:53:41;;;;;;;15.43;4.95;;;;;;;7.74;100.00;101132.72;5074036;28;20068;-70
2022/10/13 00:56:09;;;;;;;12.43;4.57;;;;;;;7.73;100.00;101147.81;5075597;28;20134;-70
2022/10/13 00:58:37;;;;;;;14.45;4.57;;;;;;;7.71;100.00;101133.00;5073796;28;20028;-70
2022/10/13 01:01:03;;;;;;;9.27;3.40;;;;;;;7.74;100.00;101138.03;5057725;28;20072;-69
2022/10/13 01:03:30;;;;;;;12.52;3.95;;;;;;;7.77;100.00;101135.09;5073047;28;20040;-70
2022/10/13 01:05:59;;;;;;;11.13;3.75;;;;;;;7.70;100.00;101131.28;5075582;28;20086;-70
2022/10/13 01:08:26;;;;;;;9.25;3.92;;;;;;;7.69;100.00;101129.63;5053095;28;20040;-70
2022/10/13 01:11:06;;;;;;;21.10;4.00;;;;;;;7.72;100.00;101146.13;5075997;28;20384;-70
2022/10/13 01:13:51;;;;;;;8.80;3.55;;;;;;;7.70;100.00;101148.09;5070158;28;20464;-70
2022/10/13 01:16:45;;;;;;;18.17;5.47;;;;;;;7.68;100.00;101159.81;5073620;28;20514;-70
2022/10/13 01:19:44;;;;;;;8.10;3.22;;;;;;;7.65;100.00;101157.44;5058444;28;20055;-70
2022/10/13 01:22:21;;;;;;;15.02;3.65;;;;;;;7.68;100.00;101155.38;5075898;28;20031;-70
2022/10/13 01:25:15;;;;;;;9.27;3.38;;;;;;;7.70;100.00;101149.91;5040820;28;20136;-70
2022/10/13 01:27:50;;;;;;;7.60;2.83;;;;;;;7.70;100.00;101144.56;5037616;28;20045;-71
2022/10/13 01:30:21;;;;;;;12.20;3.72;;;;;;;7.66;100.00;101159.13;5055829;28;20052;-70
2022/10/13 01:33:25;;;;;;;12.15;3.45;;;;;;;7.68;100.00;101187.25;5024374;28;20037;-70
2022/10/13 01:36:13;;;;;;;12.00;3.45;;;;;;;7.63;100.00;101201.91;5073478;28;20060;-70
2022/10/13 01:38:40;;;;;;;5.38;3.13;;;;;;;7.55;100.00;101229.97;5071808;28;20481;-70
2022/10/13 01:41:16;;;;;;;12.00;3.80;;;;;;;7.52;100.00;101242.69;5057239;28;20156;-70
2022/10/13 01:43:51;;;;;;;11.45;4.05;;;;;;;7.45;100.00;101242.38;5073593;28;20043;-70
2022/10/13 01:46:26;;;;;;;9.02;2.78;;;;;;;7.49;100.00;101250.91;5076215;28;20435;-70
2022/10/13 01:48:54;;;;;;;10.38;3.20;;;;;;;7.48;100.00;101228.81;5057704;28;20052;-70
2022/10/13 01:51:23;;;;;;;25.35;4.35;;;;;;;7.51;100.00;101230.38;5037825;28;20391;-71
2022/10/13 01:53:51;;;;;;;10.57;3.95;;;;;;;7.48;100.00;101231.47;5074395;28;20646;-70
2022/10/13 01:56:17;;;;;;;7.05;3.40;;;;;;;7.48;100.00;101239.44;5072597;28;20056;-70
2022/10/13 01:58:43;;;;;;;9.43;5.65;;;;;;;7.48;100.00;101218.19;5073428;28;20039;-70
2022/10/13 02:01:31;;;;;;;12.23;3.90;;;;;;;7.53;100.00;101215.97;5055962;28;20024;-70
2022/10/13 02:04:21;;;;;;;20.17;4.25;;;;;;;7.51;100.00;101214.41;5075713;28;20071;-70
2022/10/13 02:06:52;;;;;;;8.73;3.55;;;;;;;7.49;100.00;101225.19;5073278;28;20036;-70
2022/10/13 02:09:27;;;;;;;7.57;3.58;;;;;;;7.44;100.00;101226.53;5054940;28;20024;-70
2022/10/13 02:12:01;;;;;;;13.43;3.85;;;;;;;7.40;100.00;101233.94;5075030;28;20036;-70
2022/10/13 02:14:35;;;;;;;9.57;3.42;;;;;;;7.37;100.00;101239.50;5051697;28;20025;-70
2022/10/13 02:17:03;;;;;;;10.75;4.03;;;;;;;7.26;100.00;101236.91;5039720;28;20109;-70
2022/10/13 02:19:32;;;;;;;11.23;3.83;;;;;;;7.21;100.00;101252.38;5075553;28;20033;-70
2022/10/13 02:21:58;;;;;;;20.55;3.92;;;;;;;7.11;100.00;101245.19;5076661;28;20067;-70
2022/10/13 02:24:24;;;;;;;11.07;3.83;;;;;;;7.04;100.00;101241.34;5072009;28;20099;-70
2022/10/13 02:26:50;;;;;;;7.57;3.73;;;;;;;6.98;100.00;101229.44;5073093;28;20093;-70
2022/10/13 02:29:19;;;;;;;9.25;3.88;;;;;;;6.90;100.00;101228.38;5053749;28;20070;-70
2022/10/13 02:31:45;;;;;;;10.00;3.47;;;;;;;6.89;100.00;101226.72;5054869;28;20048;-70
2022/10/13 02:34:11;;;;;;;16.77;5.07;;;;;;;6.78;100.00;101214.31;5039131;28;20113;-70
2022/10/13 02:36:37;;;;;;;16.13;4.45;;;;;;;6.66;100.00;101199.41;5071653;28;20388;-70
2022/10/13 02:39:04;;;;;;;;;;;;;;;6.60;100.00;101195.44;5055936;28;20092;-71
2022/10/13 02:41:29;;;;;;;15.73;6.07;;;;;;;6.57;100.00;101190.38;5054325;28;19913;-71
2022/10/13 02:43:54;;;;;;;15.60;4.90;;;;;;;6.43;100.00;101183.56;5073836;28;20028;-71
2022/10/13 02:46:23;;;;;;;10.82;4.03;;;;;;;6.32;100.00;101176.47;5066285;28;20033;-71
2022/10/13 02:48:49;;;;;;;15.53;5.43;;;;;;;6.39;100.00;101198.06;5072848;28;20709;-71
2022/10/13 02:51:15;;;;;;;10.65;4.38;;;;;;;6.46;100.00;101211.63;5072556;28;20032;-71
2022/10/13 02:53:40;;;;;;;9.47;4.03;;;;;;;6.49;100.00;101214.91;5071301;28;20427;-71
2022/10/13 02:56:06;;;;;;;13.07;4.60;;;;;;;6.41;100.00;101205.88;5055267;28;20140;-71
2022/10/13 02:58:35;;;;;;;18.15;5.45;;;;;;;6.31;100.00;101196.00;5070620;28;20036;-71
2022/10/13 03:01:06;;;;;;;9.30;4.38;;;;;;;6.21;100.00;101186.28;5074599;28;20444;-71
2022/10/13 03:03:31;;;;;;;8.88;3.95;;;;;;;6.09;100.00;101180.97;5070038;28;20119;-70
2022/10/13 03:05:56;;;;;;;9.10;3.93;;;;;;;6.01;100.00;101183.38;5073290;28;20032;-70
2022/10/13 03:08:22;;;;;;;10.60;4.67;;;;;;;5.94;100.00;101182.19;5054384;28;20037;-70
2022/10/13 03:10:47;;;;;;;14.23;4.33;;;;;;;5.84;100.00;101186.50;5071133;28;20287;-71
2022/10/13 03:13:13;;;;;;;15.87;5.13;;;;;;;5.69;100.00;101177.97;5071904;28;20049;-71
2022/10/13 03:15:38;;;;;;;15.27;4.70;;;;;;;5.65;100.00;101176.53;5070607;28;20029;-71
2022/10/13 03:18:04;;;;;;;16.77;5.93;;;;;;;5.58;100.00;101172.66;5073075;28;20491;-71
2022/10/13 03:20:29;;;;;;;8.77;4.23;;;;;;;5.49;100.00;101171.56;5070700;28;20111;-71
2022/10/13 03:22:55;;;;;;;9.10;4.40;;;;;;;5.42;100.00;101170.38;5073795;28;20032;-71
2022/10/13 03:25:20;;;;;;;14.03;4.60;;;;;;;5.34;100.00;101168.31;5036333;28;20028;-71
2022/10/13 03:27:45;;;;;;;11.83;4.57;;;;;;;5.33;100.00;101171.06;5071746;28;20143;-71
2022/10/13 03:30:11;;;;;;;7.87;5.13;;;;;;;5.29;100.00;101173.09;5037974;28;20082;-71
2022/10/13 03:32:37;;;;;;;;;;;;;;;5.39;100.00;101189.16;5071450;28;20405;-71
2022/10/13 03:35:04;;;;;;;12.80;4.40;;;;;;;5.32;100.00;101174.69;5071999;28;19911;-71
2022/10/13 03:37:29;;;;;;;13.95;5.70;;;;;;;5.25;100.00;101158.44;5070884;28;20032;-70
2022/10/13 03:39:55;;;;;;;6.80;3.77;;;;;;;5.21;100.00;101156.97;5073301;28;20493;-71
2022/10/13 03:42:21;;;;;;;9.25;4.45;;;;;;;5.15;100.00;101152.13;5070266;28;20599;-71
2022/10/13 03:44:48;;;;;;;7.88;4.07;;;;;;;5.18;100.00;101157.22;5038439;28;20200;-70
2022/10/13 03:47:13;;;;;;;10.10;4.82;;;;;;;5.36;100.00;101177.00;5071119;28;20042;-71
2022/10/13 03:49:39;;;;;;;14.30;5.10;;;;;;;5.58;100.00;101201.81;5069575;28;20028;-71
2022/10/13 03:52:04;;;;;;;14.27;5.60;;;;;;;5.75;100.00;101203.97;5073023;28;20286;-71
2022/10/13 03:54:30;;;;;;;12.20;5.18;;;;;;;5.92;100.00;101221.19;5070516;28;20041;-71
2022/10/13 03:56:55;;;;;;;15.50;5.47;;;;;;;6.02;100.00;101224.00;5072495;28;20126;-70
2022/10/13 03:59:21;;;;;;;15.80;5.60;;;;;;;6.09;100.00;101218.09;5071022;28;20041;-71
2022/10/13 04:01:46;;;;;;;13.57;5.10;;;;;;;6.18;100.00;101213.88;5072351;28;20036;-70
2022/10/13 04:04:12;;;;;;;16.23;6.97;;;;;;;6.20;100.00;101203.97;5071430;28;20450;-71
2022/10/13 04:06:40;;;;;;;11.80;5.28;;;;;;;6.32;100.00;101196.84;5070215;28;20048;-71
2022/10/13 04:09:05;;;;;;;18.02;7.07;;;;;;;6.37;100.00;101184.06;5052794;28;20024;-71
2022/10/13 04:11:31;;;;;;;14.73;5.47;;;;;;;6.49;100.00;101196.31;5073474;28;20032;-70
2022/10/13 04:13:57;;;;;;;18.77;6.95;;;;;;;6.55;100.00;101187.88;5073214;28;20031;-70
2022/10/13 04:16:25;;;;;;;14.40;5.80;;;;;;;6.60;100.00;101187.47;5073422;28;20033;-71
2022/10/13 04:18:57;;;;;;;15.02;5.43;;;;;;;6.68;100.00;101193.00;5076170;28;20037;-71
2022/10/13 04:21:24;;;;;;;12.30;5.30;;;;;;;6.69;100.00;101183.22;5051955;28;20028;-71
2022/10/13 04:23:49;;;;;;;;;;;;;;;6.64;100.00;101170.34;5042085;28;20044;-71
2022/10/13 04:26:17;;;;;;;;;;;;;;;6.67;100.00;101177.19;5070740;28;19916;-71
2022/10/13 04:28:43;;;;;;;11.50;4.80;;;;;;;6.68;100.00;101182.38;5076740;28;19974;-71
2022/10/13 04:31:09;;;;;;;16.05;5.65;;;;;;;6.71;100.00;101176.00;5041288;28;20051;-71
2022/10/13 04:33:34;;;;;;;13.23;5.57;;;;;;;6.72;100.00;101183.84;5073431;28;20436;-71
2022/10/13 04:36:03;;;;;;;13.57;5.47;;;;;;;6.74;100.00;101192.50;5058508;28;20184;-71
2022/10/13 04:38:28;;;;;;;13.25;5.72;;;;;;;6.74;100.00;101192.50;5040098;28;20033;-71
2022/10/13 04:40:54;;;;;;;15.50;6.37;;;;;;;6.65;100.00;101190.63;5076701;28;20544;-71
2022/10/13 04:43:19;;;;;;;12.93;5.67;;;;;;;6.59;100.00;101191.09;5073791;28;20466;-71
2022/10/13 04:45:45;;;;;;;11.32;5.18;;;;;;;6.59;100.00;101191.09;5040842;28;20029;-71
2022/10/13 04:48:10;;;;;;;11.60;5.77;;;;;;;6.53;100.00;101183.63;5074744;28;20063;-71
2022/10/13 04:50:36;;;;;;;13.68;5.30;;;;;;;6.50;100.00;101178.59;5073400;28;20438;-71
2022/10/13 04:53:01;;;;;;;13.95;6.03;;;;;;;6.49;100.00;101187.53;5076328;28;20060;-71
2022/10/13 04:55:26;;;;;;;16.13;7.47;;;;;;;6.49;100.00;101192.84;5073192;28;20040;-71
2022/10/13 04:57:52;;;;;;;13.17;5.97;;;;;;;6.49;100.00;101184.88;5057868;28;20033;-71
2022/10/13 05:00:17;;;;;;;31.67;7.70;;;;;;;6.53;100.00;101194.25;5073939;28;20032;-71
2022/10/13 05:02:43;;;;;;;9.95;6.38;;;;;;;6.52;100.00;101187.28;5076306;28;20100;-70
2022/10/13 05:05:08;;;;;;;15.47;6.43;;;;;;;6.42;100.00;101176.56;5058438;28;20025;-71
2022/10/13 05:07:34;;;;;;;14.30;6.15;;;;;;;6.43;100.00;101172.94;5067635;28;20485;-71
2022/10/13 05:10:00;;;;;;;14.63;7.40;;;;;;;6.45;100.00;101171.00;5067466;28;20555;-71
2022/10/13 05:12:25;;;;;;;15.15;6.40;;;;;;;6.49;100.00;101166.31;5060313;28;20809;-71
2022/10/13 05:14:50;;;;;;;21.10;7.43;;;;;;;6.56;100.00;101172.78;5078159;28;20025;-70
2022/10/13 05:17:16;;;;;;;13.07;6.30;;;;;;;6.54;100.00;101158.81;5063077;28;20035;-71
2022/10/13 05:19:41;;;;;;;11.23;5.40;;;;;;;6.51;100.00;101153.78;5067875;28;20544;-71
2022/10/13 05:22:06;;;;;;;26.93;8.50;;;;;;;6.52;100.00;101143.00;5066196;28;20089;-71
2022/10/13 05:24:38;;;;;;;20.47;7.00;;;;;;;6.50;100.00;101146.75;5074808;28;20032;-71
2022/10/13 05:27:13;;;;;;;18.05;6.55;;;;;;;6.50;100.00;101141.47;5049199;28;20064;-71
2022/10/13 05:29:39;;;;;;;11.48;6.60;;;;;;;6.50;100.00;101139.63;5063045;28;20078;-71
2022/10/13 05:32:05;;;;;;;12.32;6.07;;;;;;;6.54;100.00;101133.13;5065831;28;20020;-71
2022/10/13 05:34:31;;;;;;;16.58;7.68;;;;;;;6.52;100.00;101135.06;5073077;28;20036;-71
2022/10/13 05:36:57;;;;;;;17.08;7.22;;;;;;;6.49;100.00;101131.81;5068880;28;20378;-70
2022/10/13 05:39:23;;;;;;;13.40;5.88;;;;;;;6.55;100.00;101139.25;5057556;28;20496;-71
2022/10/13 05:41:48;;;;;;;25.03;9.07;;;;;;;6.57;100.00;101134.69;5070344;28;20031;-71
2022/10/13 05:44:19;;;;;;;17.23;8.00;;;;;;;6.59;100.00;101134.56;5056112;28;20921;-71
2022/10/13 05:46:55;;;;;;;15.80;6.60;;;;;;;6.61;100.00;101129.97;5052347;28;20032;-71
2022/10/13 05:49:20;;;;;;;18.45;7.25;;;;;;;6.61;100.00;101130.81;5075397;28;20493;-71
2022/10/13 05:51:49;;;;;;;13.33;6.57;;;;;;;6.60;100.00;101136.22;5073649;28;20040;-71
2022/10/13 05:54:25;;;;;;;14.88;7.18;;;;;;;6.59;100.00;101135.41;5080835;28;20024;-71
2022/10/13 05:57:14;;;;;;;14.23;7.05;;;;;;;6.63;100.00;101130.69;5056930;28;21218;-71
2022/10/13 05:59:46;;;;;;;13.48;6.85;;;;;;;6.65;100.00;101134.03;5058861;28;20047;-71
2022/10/13 06:02:14;;;;;;;14.88;7.90;;;;;;;6.66;100.00;101131.25;5125724;22;20047;-77
2022/10/13 06:04:44;;;;;;;19.75;7.88;;;;;;;6.71;100.00;101138.84;5075729;28;20081;-78
2022/10/13 06:07:10;;;;;;;14.65;7.60;;;;;;;6.69;100.00;101125.69;5091436;28;20024;-77
2022/10/13 06:09:37;;;;;;;17.95;7.63;;;;;;;6.71;100.00;101138.84;5088872;28;20307;-78
2022/10/13 06:12:04;;;;;;;13.82;7.28;;;;;;;6.75;100.00;101125.19;5052888;28;20502;-78
2022/10/13 06:14:29;;;;;;;22.17;8.35;;;;;;;6.73;100.00;101118.31;5059547;28;20499;-80
2022/10/13 06:16:55;;;;;;;21.90;8.20;;;;;;;6.68;100.00;101109.91;5062874;28;20024;-79
2022/10/13 06:19:20;;;;;;;22.90;9.17;;;;;;;6.67;100.00;101106.44;5090081;28;20052;-78
2022/10/13 06:21:45;;;;;;;23.93;8.60;;;;;;;6.61;100.00;101090.19;5088933;28;20019;-79
2022/10/13 06:24:11;;;;;;;19.57;7.60;;;;;;;6.76;100.00;101105.63;5055848;28;20492;-78
2022/10/13 06:26:36;;;;;;;18.33;8.30;;;;;;;6.87;100.00;101111.88;5071533;28;20032;-78
2022/10/13 06:29:01;;;;;;;18.73;7.17;;;;;;;6.92;100.00;101107.84;5060774;28;20047;-78
2022/10/13 06:31:27;;;;;;;18.63;8.40;;;;;;;6.97;100.00;101108.28;5086172;28;20027;-78
2022/10/13 06:33:52;;;;;;;13.43;7.45;;;;;;;7.03;100.00;101106.09;5057315;28;20090;-78
2022/10/13 06:36:18;;;;;;;20.60;8.33;;;;;;;7.08;100.00;101106.53;5061511;28;20036;-80
2022/10/13 06:38:43;;;;;;;15.47;7.70;;;;;;;7.15;100.00;101105.03;5071789;28;20039;-79
2022/10/13 06:41:08;;;;;;;19.47;9.57;;;;;;;7.14;100.00;101093.59;5071863;28;20109;-79
2022/10/13 06:43:34;;;;;;;18.90;10.07;;;;;;;7.17;100.00;101073.91;5089820;28;20028;-78
2022/10/13 06:46:01;;;;;;;;;;;;;;;7.48;100.00;101088.00;5064572;28;20945;-78
2022/10/13 06:48:27;;;;;;;;;;;;;;;7.60;100.00;101072.78;5055190;28;19962;-78
2022/10/13 06:50:52;;;;;;;19.92;7.30;;;;;;;7.74;100.00;101066.25;5071248;28;20012;-78
2022/10/13 06:53:18;;;;;;;22.03;7.60;;;;;;;7.72;100.00;101037.16;5070712;28;20036;-79
2022/10/13 06:55:43;;;;;;;13.77;6.65;;;;;;;7.89;100.00;101021.50;5069355;28;20024;-78
2022/10/13 06:58:09;;;;;;;17.37;6.77;;;;;;;8.02;100.00;101014.94;5078497;28;20124;-78
2022/10/13 07:00:35;;;;;;;20.00;8.00;;;;;;;7.96;100.00;100988.94;5052907;28;20583;-77
2022/10/13 07:03:01;;;;;;;19.40;9.20;;;;;;;7.98;100.00;100979.00;5081917;28;20038;-77
2022/10/13 07:05:26;;;;;;;20.17;9.03;;;;;;;8.18;100.00;101000.28;5073621;28;20040;-77
2022/10/13 07:07:53;;;;;;;;;;;;;;;8.37;100.00;101002.91;5049437;28;20479;-77
2022/10/13 07:10:18;;;;;;;;;;;;;;;8.40;100.00;100994.66;5068788;28;19912;-77
2022/10/13 07:12:43;;;;;;;32.23;9.10;;;;;;;8.34;100.00;100975.75;5058671;28;19920;-77
2022/10/13 07:15:09;;;;;;;58.57;13.70;;;;;;;8.34;100.00;100973.94;5055069;28;20063;-77
2022/10/13 07:17:35;;;;;;;41.33;11.90;;;;;;;8.42;100.00;100978.56;5072642;28;20036;-77
2022/10/13 07:20:02;;;;;;;55.33;12.87;;;;;;;8.44;100.00;100969.44;5056923;28;20116;-78
2022/10/13 07:22:28;;;;;;;31.00;8.60;;;;;;;8.41;100.00;100956.44;5059691;28;20507;-77
2022/10/13 07:24:53;;;;;;;23.00;8.05;;;;;;;8.33;100.00;100942.13;5067986;28;20040;-78
2022/10/13 07:27:20;;;;;;;;;;;;;;;8.28;100.00;100939.06;5050163;28;20025;-77
2022/10/13 07:29:45;;;;;;;;;;;;;;;8.36;100.00;100957.84;5080852;28;20370;-78
2022/10/13 07:32:10;;;;;;;24.07;8.93;;;;;;;8.48;100.00;100958.53;5058382;28;19958;-78
2022/10/13 07:34:36;;;;;;;21.53;9.07;;;;;;;8.64;100.00;100967.59;5047667;28;20086;-77
2022/10/13 07:37:01;;;;;;;15.37;8.03;;;;;;;8.68;100.00;100952.16;5050265;28;20448;-77
2022/10/13 07:39:27;;;;;;;;;;;;;;;8.64;100.00;100946.31;5069658;28;20028;-78
2022/10/13 07:41:52;;;;;;;;;;;;;;;8.55;100.00;100931.19;5066252;28;19977;-78
2022/10/13 07:44:18;;;;;;;17.80;8.13;;;;;;;8.35;100.00;100929.53;5076045;28;19915;-77
2022/10/13 07:46:43;;;;;;;15.73;8.17;;;;;;;8.16;100.00;100933.91;5064317;28;20032;-76
2022/10/13 07:49:09;;;;;;;15.10;8.07;;;;;;;8.19;100.00;100959.38;5058138;28;20055;-78
2022/10/13 07:51:34;;;;;;;24.67;9.10;;;;;;;8.19;100.00;100959.38;5050536;28;20131;-78
2022/10/13 07:53:59;;;;;;;20.70;9.50;;;;;;;8.24;100.00;100958.00;5064380;28;20047;-78
2022/10/13 07:56:25;;;;;;;22.83;8.67;;;;;;;8.23;100.00;100972.25;5061077;28;20555;-79
2022/10/13 07:58:50;;;;;;;17.50;7.97;;;;;;;8.53;100.00;100986.38;5081017;28;20603;-78
2022/10/13 08:01:16;;;;;;;20.60;7.97;;;;;;;8.86;100.00;100981.53;5061832;28;20054;-78
2022/10/13 08:03:42;;;;;;;18.65;8.05;;;;;;;9.07;100.00;100968.84;5068197;28;20488;-78
2022/10/13 08:06:09;;;;;;;22.77;10.45;;;;;;;9.01;100.00;100925.97;5061889;28;20036;-78
2022/10/13 08:08:34;;;;;;;24.08;8.93;;;;;;;8.90;100.00;100891.53;5051893;28;20023;-78
2022/10/13 08:11:05;;;;;;;20.80;9.82;;;;;;;9.08;100.00;100887.09;5081214;28;20128;-78
2022/10/13 08:13:32;;;;;;;21.42;9.80;;;;;;;8.95;100.00;100874.16;5070975;28;20028;-78
2022/10/13 08:16:06;;;;;;;19.10;10.45;;;;;;;8.91;100.00;100871.94;5065697;28;20030;-77
2022/10/13 08:18:32;;;;;;;22.58;9.48;;;;;;;9.33;100.00;100900.69;5053135;28;20044;-78
2022/10/13 08:21:01;;;;;;;16.33;9.33;;;;;;;9.81;100.00;100900.34;5073042;28;20039;-78
2022/10/13 08:23:27;;;;;;;28.95;11.77;;;;;;;9.95;100.00;100861.59;5069647;28;20036;-78
2022/10/13 08:25:52;;;;;;;25.73;9.40;;;;;;;9.62;100.00;100797.38;5062912;28;20039;-78
2022/10/13 08:28:24;;;;;;;24.40;9.33;;;;;;;9.62;100.00;100808.03;5076354;28;20025;-78
2022/10/13 08:30:50;;;;;;;23.08;10.00;;;;;;;9.54;100.00;100821.28;5072518;28;20408;-78
2022/10/13 08:33:16;;;;;;;17.08;9.63;;;;;;;9.77;100.00;100844.78;5061040;28;20485;-78
2022/10/13 08:35:42;;;;;;;24.35;9.85;;;;;;;10.05;100.00;100842.84;5087218;28;20032;-77
2022/10/13 08:38:08;;;;;;;26.85;11.48;;;;;;;10.06;100.00;100831.97;5062213;28;20078;-78
2022/10/13 08:40:34;;;;;;;25.30;10.77;;;;;;;10.34;100.00;100856.69;5069857;28;20558;-78
2022/10/13 08:42:59;;;;;;;17.90;10.27;;;;;;;10.16;100.00;100839.91;5056760;28;20369;-77
2022/10/13 08:45:28;;;;;;;23.10;12.17;;;;;;;10.00;100.00;100837.97;5085578;28;20028;-77
2022/10/13 08:48:00;;;;;;;21.92;10.77;;;;;;;10.38;100.00;100867.91;5063044;28;20466;-78
2022/10/13 08:50:29;;;;;;;16.50;9.90;;;;;;;10.50;100.00;100839.94;5077099;28;20063;-78
2022/10/13 08:53:00;;;;;;;19.98;9.30;;;;;;;11.18;100.00;100817.63;5071896;28;20489;-78
2022/10/13 08:55:39;;;;;;;21.60;9.45;;;;;;;11.32;100.00;100743.97;5067779;28;20035;-78
2022/10/13 08:58:36;;;;;;;21.27;9.95;;;;;;;11.29;100.00;100653.44;5066612;28;20468;-76
2022/10/13 09:01:18;;;;;;;17.08;8.60;;;;;;;11.28;100.00;100657.09;4983495;28;20133;-75
2022/10/13 09:03:55;;;;;;;30.20;11.10;;;;;;;11.67;100.00;100651.00;4960508;28;20031;-75
2022/10/13 09:06:41;;;;;;;17.80;10.00;;;;;;;11.62;100.00;100680.09;4968531;28;20589;-73
2022/10/13 09:09:11;;;;;;;18.30;9.80;;;;;;;11.14;100.00;100639.06;4985066;28;20499;-75
2022/10/13 09:11:40;;;;;;;23.42;10.25;;;;;;;10.99;100.00;100711.88;4968670;28;20603;-75
2022/10/13 09:14:09;;;;;;;24.05;11.05;;;;;;;10.70;100.00;100740.88;4967933;28;20735;-76
2022/10/13 09:16:41;;;;;;;16.67;9.93;;;;;;;10.91;100.00;100820.56;4981661;28;20541;-76
2022/10/13 09:19:39;;;;;;;22.35;10.18;;;;;;;11.09;100.00;100844.47;4985204;28;20086;-75
2022/10/13 09:22:35;;;;;;;23.85;10.30;;;;;;;11.07;100.00;100839.28;4957633;28;20042;-76
2022/10/13 09:25:07;;;;;;;20.58;9.45;;;;;;;11.02;100.00;100854.16;4968081;28;20050;-76
2022/10/13 09:27:56;;;;;;;21.00;9.52;;;;;;;11.09;100.00;100908.63;4984538;28;20034;-76
2022/10/13 09:30:37;;;;;;;20.95;10.40;;;;;;;11.47;100.00;100960.69;4981526;28;20102;-76
2022/10/13 09:33:08;;;;;;;28.38;11.40;;;;;;;11.62;100.00;100897.53;4968718;28;20042;-75
2022/10/13 09:35:36;;;;;;;23.80;10.68;;;;;;;11.64;100.00;100833.19;4968237;28;20068;-75
2022/10/13 09:38:02;;;;;;;27.33;12.05;;;;;;;12.12;100.00;100852.06;5055410;28;20039;-75
2022/10/13 09:40:30;;;;;;;21.60;9.35;;;;;;;11.95;100.00;100773.69;5073576;28;20070;-76
2022/10/13 09:42:57;;;;;;;22.50;10.88;;;;;;;11.81;100.00;100735.88;5068086;28;20028;-76
2022/10/13 09:45:24;;;;;;;21.63;10.07;;;;;;;12.00;100.00;100752.59;5060346;28;20036;-75
2022/10/13 09:47:57;;;;;;;31.58;12.63;;;;;;;12.20;100.00;100775.28;5067123;28;20047;-76
2022/10/13 09:50:25;;;;;;;32.30;11.15;;;;;;;12.48;100.00;100723.13;5080668;28;20051;-75
2022/10/13 09:52:53;;;;;;;21.58;10.80;;;;;;;12.71;100.00;100683.81;5081210;28;20074;-76
2022/10/13 09:55:28;;;;;;;23.33;10.00;;;;;;;12.78;100.00;100603.56;5055591;28;20075;-76
2022/10/13 09:57:59;;;;;;;24.93;9.93;;;;;;;13.10;100.00;100623.88;5067031;28;20101;-75
2022/10/13 10:00:26;;;;;;;17.02;10.05;;;;;;;12.47;100.00;100524.16;5072466;28;20060;-76
2022/10/13 10:03:12;;;;;;;20.90;9.65;;;;;;;12.60;100.00;100582.47;5067178;28;20055;-75
2022/10/13 10:05:42;;;;;;;20.20;10.07;;;;;;;12.12;100.00;100604.00;5081935;28;20042;-77
2022/10/13 10:08:21;;;;;;;37.25;12.35;;;;;;;12.08;100.00;100717.78;5040870;28;20024;-76
2022/10/13 10:10:46;;;;;;;24.25;11.15;;;;;;;12.25;100.00;100772.91;5067067;28;20499;-76
2022/10/13 10:13:13;;;;;;;27.37;10.83;;;;;;;12.28;100.00;100776.25;5060937;28;20036;-75
2022/10/13 10:15:54;;;;;;;23.08;10.23;;;;;;;12.40;100.00;100794.44;5064405;28;20032;-76
2022/10/13 10:18:28;;;;;;;25.75;12.57;;;;;;;12.16;100.00;100757.06;5054468;28;20034;-75
2022/10/13 10:21:16;;;;;;;26.20;11.18;;;;;;;12.08;100.00;100802.56;5075667;28;20039;-76
2022/10/13 10:23:58;;;;;;;19.63;10.00;;;;;;;12.34;100.00;100883.50;5081561;28;20447;-75
2022/10/13 10:26:47;;;;;;;24.88;10.77;;;;;;;12.23;100.00;100831.13;5072558;28;20405;-76
2022/10/13 10:29:23;;;;;;;21.40;11.40;;;;;;;12.13;100.00;100853.75;5062791;28;20032;-75
2022/10/13 10:32:01;;;;;;;22.90;11.25;;;;;;;12.16;100.00;100846.22;5041578;28;20033;-76
2022/10/13 10:35:06;;;;;;;23.45;11.95;;;;;;;12.10;100.00;100849.56;5064153;28;20127;-75
2022/10/13 10:38:05;;;;;;;25.38;11.40;;;;;;;12.31;100.00;100918.63;4966861;28;20054;-76
2022/10/13 10:40:44;;;;;;;25.80;13.13;;;;;;;12.29;100.00;100893.03;4966911;28;20526;-75
2022/10/13 10:43:31;;;;;;;29.17;12.60;;;;;;;12.33;100.00;100891.69;4967255;28;20502;-76
2022/10/13 10:45:58;;;;;;;27.30;11.90;;;;;;;12.14;100.00;100893.72;4982812;28;20526;-75
2022/10/13 10:48:37;;;;;;;28.27;13.48;;;;;;;12.01;100.00;100891.56;4966982;28;20034;-75
2022/10/13 10:51:07;;;;;;;24.58;13.20;;;;;;;12.07;100.00;100892.72;4966650;28;20492;-76
2022/10/13 10:53:43;;;;;;;23.50;11.73;;;;;;;12.12;100.00;100903.75;4983176;28;20030;-75
2022/10/13 10:56:21;;;;;;;24.30;12.05;;;;;;;12.18;100.00;100908.44;4964952;28;20038;-76
2022/10/13 10:59:08;;;;;;;27.27;12.43;;;;;;;12.08;100.00;100937.22;4981469;28;20045;-75
2022/10/13 11:01:45;;;;;;;30.25;13.35;;;;;;;12.19;100.00;100958.28;4982693;28;20054;-76
2022/10/13 11:04:32;;;;;;;23.98;12.80;;;;;;;11.99;100.00;100947.09;4967004;28;20125;-75
2022/10/13 11:06:58;;;;;;;31.92;13.55;;;;;;;11.91;100.00;100949.75;4982047;28;20415;-75
2022/10/13 11:09:42;;;;;;;29.98;13.52;;;;;;;11.96;100.00;100976.88;4963689;28;20054;-76
2022/10/13 11:12:19;;;;;;;27.98;12.55;;;;;;;11.93;100.00;100987.03;4980940;28;20042;-76
2022/10/13 11:14:47;;;;;;;27.52;14.55;;;;;;;11.90;100.00;100985.53;5027328;28;20101;-76
2022/10/13 11:17:31;;;;;;;22.45;13.40;;;;;;;11.96;100.00;100994.72;5072605;28;20069;-75
2022/10/13 11:19:57;;;;;;;38.93;16.77;;;;;;;11.71;100.00;100985.81;5061921;28;20103;-75
2022/10/13 11:22:30;;;;;;;32.55;14.45;;;;;;;11.77;100.00;101019.91;5062060;28;20493;-76
2022/10/13 11:25:02;;;;;;;42.75;14.73;;;;;;;11.89;100.00;101071.31;5039133;28;20583;-74
2022/10/13 11:27:39;;;;;;;27.63;14.15;;;;;;;11.92;100.00;101073.69;5070001;28;20124;-76
2022/10/13 11:30:42;;;;;;;29.58;15.00;;;;;;;11.64;100.00;101057.00;5059888;28;20213;-75